createdAt,value
2023-01-03T00:01:46.685Z,7.23
2023-01-03T00:04:15.517Z,7.23
2023-01-03T00:06:46.031Z,7.67
2023-01-03T00:09:17.998Z,7.20
2023-01-03T00:12:05.947Z,7.00
2023-01-03T00:14:36.651Z,7.30
2023-01-03T00:17:07.734Z,6.97
2023-01-03T00:19:38.397Z,7.17
2023-01-03T00:22:07.013Z,7.07
2023-01-03T00:24:35.816Z,7.20
2023-01-03T00:27:06.914Z,7.10
2023-01-03T00:29:35.634Z,7.20
2023-01-03T00:32:05.419Z,6.93
2023-01-03T00:34:36.449Z,6.90
2023-01-03T00:37:05.334Z,6.93
2023-01-03T00:39:34.668Z,7.10
2023-01-03T00:42:02.965Z,7.17
2023-01-03T00:44:31.383Z,7.23
2023-01-03T00:47:00.115Z,6.97
2023-01-03T00:49:29.920Z,7.73
2023-01-03T00:51:58.528Z,8.17
2023-01-03T00:54:27.028Z,8.20
2023-01-03T00:56:55.606Z,8.70
2023-01-03T00:59:24.410Z,8.57
2023-01-03T01:01:54.707Z,9.20
2023-01-03T01:04:27.997Z,9.67
2023-01-03T01:06:59.773Z,9.07
2023-01-03T01:09:31.074Z,9.33
2023-01-03T01:11:59.768Z,8.67
2023-01-03T01:14:30.472Z,9.37
2023-01-03T01:17:01.716Z,9.80
2023-01-03T01:19:32.036Z,8.90
2023-01-03T01:22:02.089Z,10.47
2023-01-03T01:24:30.678Z,10.93
2023-01-03T01:26:59.048Z,10.23
2023-01-03T01:29:27.507Z,10.57
2023-01-03T01:31:55.714Z,11.03
2023-01-03T01:34:25.409Z,12.00
2023-01-03T01:36:54.142Z,11.70
2023-01-03T01:39:25.700Z,11.63
2023-01-03T01:42:19.294Z,11.57
2023-01-03T01:44:53.611Z,10.50
2023-01-03T01:47:37.646Z,11.97
2023-01-03T01:50:16.105Z,11.80
2023-01-03T01:52:49.744Z,12.80
2023-01-03T01:55:22.949Z,14.10
2023-01-03T01:57:52.132Z,13.60
2023-01-03T02:00:20.846Z,14.00
2023-01-03T02:02:52.417Z,14.53
2023-01-03T02:05:22.434Z,15.00
2023-01-03T02:07:51.946Z,14.47
2023-01-03T02:10:29.865Z,14.50
2023-01-03T02:13:07.032Z,13.77
2023-01-03T02:15:58.233Z,14.77
2023-01-03T02:18:38.940Z,15.33
2023-01-03T02:21:41.974Z,16.13
2023-01-03T02:24:37.221Z,14.63
2023-01-03T02:27:23.279Z,15.00
2023-01-03T02:30:32.455Z,15.70
2023-01-03T02:33:08.493Z,16.40
2023-01-03T02:35:42.885Z,15.83
2023-01-03T02:38:16.581Z,15.57
2023-01-03T02:40:50.529Z,15.50
2023-01-03T02:43:23.865Z,16.87
2023-01-03T02:46:04.339Z,17.13
2023-01-03T02:48:42.578Z,16.80
2023-01-03T02:51:16.121Z,16.70
2023-01-03T02:53:48.855Z,15.97
2023-01-03T02:56:22.448Z,17.73
2023-01-03T02:58:58.003Z,17.40
2023-01-03T03:01:30.370Z,16.50
2023-01-03T03:04:01.328Z,15.70
2023-01-03T03:06:37.615Z,17.70
2023-01-03T03:09:06.473Z,16.47
2023-01-03T03:11:55.215Z,16.30
2023-01-03T03:14:27.401Z,17.30
2023-01-03T03:17:01.484Z,16.83
2023-01-03T03:19:50.567Z,17.60
2023-01-03T03:22:46.486Z,17.50
2023-01-03T03:25:19.989Z,17.17
2023-01-03T03:28:09.641Z,16.77
2023-01-03T03:30:42.699Z,16.53
2023-01-03T03:33:16.817Z,16.77
2023-01-03T03:35:49.037Z,15.73
2023-01-03T03:38:26.521Z,16.17
2023-01-03T03:41:29.448Z,15.87
2023-01-03T03:44:22.444Z,15.70
2023-01-03T03:46:55.694Z,16.43
2023-01-03T03:49:41.202Z,15.07
2023-01-03T03:52:14.937Z,14.37
2023-01-03T03:54:48.131Z,15.10
2023-01-03T03:57:22.831Z,13.70
2023-01-03T03:59:56.487Z,13.80
2023-01-03T04:02:27.426Z,13.67
2023-01-03T04:04:59.815Z,13.97
2023-01-03T04:07:28.568Z,13.30
2023-01-03T04:09:57.283Z,13.17
2023-01-03T04:12:25.662Z,12.83
2023-01-03T04:14:54.576Z,13.40
2023-01-03T04:17:23.078Z,13.70
2023-01-03T04:19:51.288Z,13.03
2023-01-03T04:22:21.251Z,11.97
2023-01-03T04:24:49.705Z,12.63
2023-01-03T04:27:17.876Z,12.07
2023-01-03T04:29:46.140Z,11.63
2023-01-03T04:32:14.970Z,11.37
2023-01-03T04:34:43.601Z,11.70
2023-01-03T04:37:11.901Z,11.33
2023-01-03T04:39:42.022Z,12.17
2023-01-03T04:42:24.160Z,11.97
2023-01-03T04:44:52.841Z,12.00
2023-01-03T04:47:21.603Z,11.40
2023-01-03T04:49:50.014Z,12.73
2023-01-03T04:52:18.915Z,11.87
2023-01-03T04:54:48.513Z,12.63
2023-01-03T04:57:17.047Z,13.23
2023-01-03T04:59:45.774Z,12.80
2023-01-03T05:02:16.300Z,13.27
2023-01-03T05:04:45.194Z,13.00
2023-01-03T05:07:13.580Z,13.17
2023-01-03T05:09:41.768Z,12.90
2023-01-03T05:12:12.437Z,13.90
2023-01-03T05:14:42.017Z,14.00
2023-01-03T05:17:10.268Z,13.93
2023-01-03T05:19:59.617Z,14.00
2023-01-03T05:22:45.249Z,14.30
2023-01-03T05:25:27.665Z,14.23
2023-01-03T05:27:58.256Z,16.43
2023-01-03T05:30:26.860Z,15.20
2023-01-03T05:32:55.379Z,15.47
2023-01-03T05:35:23.733Z,15.27
2023-01-03T05:37:54.611Z,16.53
2023-01-03T05:40:23.072Z,16.10
2023-01-03T05:42:51.308Z,17.37
2023-01-03T05:45:25.646Z,16.37
2023-01-03T05:47:54.019Z,17.93
2023-01-03T05:50:22.514Z,17.30
2023-01-03T05:52:50.912Z,16.80
2023-01-03T05:55:19.626Z,17.90
2023-01-03T05:57:48.062Z,17.93
2023-01-03T06:00:17.336Z,17.20
2023-01-03T06:02:47.244Z,18.00
2023-01-03T06:05:15.568Z,18.77
2023-01-03T06:07:44.251Z,18.57
2023-01-03T06:10:12.583Z,18.07
2023-01-03T06:12:40.755Z,19.73
2023-01-03T06:15:09.987Z,18.03
2023-01-03T06:17:55.320Z,17.47
2023-01-03T06:20:25.684Z,18.00
2023-01-03T06:22:55.002Z,19.03
2023-01-03T06:25:23.464Z,18.13
2023-01-03T06:27:51.736Z,19.10
2023-01-03T06:30:20.956Z,18.17
2023-01-03T06:32:49.276Z,19.47
2023-01-03T06:35:20.606Z,18.73
2023-01-03T06:37:50.407Z,19.10
2023-01-03T06:40:19.390Z,17.40
2023-01-03T06:42:47.767Z,17.90
2023-01-03T06:45:34.039Z,17.87
2023-01-03T06:48:23.204Z,17.67
2023-01-03T06:51:09.134Z,16.97
2023-01-03T06:53:41.722Z,18.17
2023-01-03T06:56:11.621Z,17.37
2023-01-03T06:58:39.992Z,16.97
2023-01-03T07:01:08.756Z,17.20
2023-01-03T07:03:37.502Z,16.83
2023-01-03T07:06:06.091Z,16.97
2023-01-03T07:08:38.472Z,16.60
2023-01-03T07:11:11.178Z,15.43
2023-01-03T07:13:56.989Z,14.90
2023-01-03T07:16:26.703Z,15.90
2023-01-03T07:18:55.778Z,15.53
2023-01-03T07:21:24.893Z,15.73
2023-01-03T07:23:54.668Z,15.27
2023-01-03T07:26:26.964Z,15.30
2023-01-03T07:28:55.688Z,16.07
2023-01-03T07:31:24.256Z,15.07
2023-01-03T07:33:54.217Z,14.87
2023-01-03T07:36:23.191Z,16.23
2023-01-03T07:38:51.432Z,15.70
2023-01-03T07:41:19.915Z,14.90
2023-01-03T07:43:49.744Z,16.20
2023-01-03T07:46:19.748Z,15.67
2023-01-03T07:48:49.989Z,15.00
2023-01-03T07:51:19.523Z,15.93
2023-01-03T07:53:51.343Z,16.27
2023-01-03T07:56:20.557Z,16.40
2023-01-03T07:58:52.048Z,16.33
2023-01-03T08:01:23.335Z,15.97
2023-01-03T08:03:52.241Z,16.57
2023-01-03T08:06:22.608Z,17.00
2023-01-03T08:09:12.114Z,17.07
2023-01-03T08:11:58.111Z,16.93
2023-01-03T08:14:27.958Z,16.83
2023-01-03T08:16:56.934Z,18.37
2023-01-03T08:19:25.764Z,18.70
2023-01-03T08:21:54.296Z,18.37
2023-01-03T08:24:22.687Z,18.60
2023-01-03T08:26:50.982Z,18.37
2023-01-03T08:29:19.432Z,17.33
2023-01-03T08:31:53.970Z,17.73
2023-01-03T08:34:29.118Z,16.50
2023-01-03T08:37:02.116Z,16.90
2023-01-03T08:39:35.385Z,16.80
2023-01-03T08:42:06.820Z,15.57
2023-01-03T08:44:37.870Z,15.60
2023-01-03T08:47:10.120Z,15.47
2023-01-03T08:49:41.372Z,14.50
2023-01-03T08:52:09.892Z,13.60
2023-01-03T08:54:40.545Z,12.80
2023-01-03T08:57:08.793Z,12.57
2023-01-03T08:59:37.248Z,10.37
2023-01-03T09:02:05.730Z,11.80
2023-01-03T09:04:35.809Z,11.47
2023-01-03T09:07:04.339Z,9.97
2023-01-03T09:09:33.166Z,11.67
2023-01-03T09:12:01.490Z,11.33
2023-01-03T09:14:31.332Z,9.53
2023-01-03T09:17:01.706Z,9.97
2023-01-03T09:19:29.968Z,9.33
2023-01-03T09:21:59.559Z,9.10
2023-01-03T09:24:28.057Z,9.40
2023-01-03T09:26:56.422Z,8.63
2023-01-03T09:29:24.776Z,8.80
2023-01-03T09:31:53.340Z,8.80
2023-01-03T09:34:21.689Z,8.20
2023-01-03T09:36:49.883Z,7.63
2023-01-03T09:39:19.822Z,8.03
2023-01-03T09:42:09.323Z,7.53
2023-01-03T09:44:39.510Z,7.27
2023-01-03T09:47:07.978Z,7.57
2023-01-03T09:49:57.640Z,7.20
2023-01-03T09:52:50.529Z,6.90
2023-01-03T09:55:44.819Z,6.33
2023-01-03T09:58:33.555Z,5.90
2023-01-03T10:01:33.454Z,6.10
2023-01-03T10:04:13.560Z,6.17
2023-01-03T10:06:52.542Z,6.83
2023-01-03T10:09:29.011Z,6.20
2023-01-03T10:12:10.174Z,6.20
2023-01-03T10:14:54.994Z,5.77
2023-01-03T10:17:29.344Z,5.60
2023-01-03T10:20:14.214Z,6.03
2023-01-03T10:22:42.613Z,6.00
2023-01-03T10:25:17.216Z,6.00
2023-01-03T10:27:48.792Z,5.67
2023-01-03T10:30:20.012Z,5.03
2023-01-03T10:33:15.121Z,4.93
2023-01-03T10:35:43.669Z,5.20
2023-01-03T10:38:12.086Z,5.20
2023-01-03T10:40:44.340Z,6.00
2023-01-03T10:43:17.685Z,5.27
2023-01-03T10:45:55.283Z,4.90
2023-01-03T10:48:24.786Z,5.90
2023-01-03T10:50:53.649Z,5.40
2023-01-03T10:53:24.097Z,5.33
2023-01-03T10:55:54.795Z,4.90
2023-01-03T10:58:30.623Z,4.90
2023-01-03T11:01:21.401Z,4.83
2023-01-03T11:04:14.411Z,5.07
2023-01-03T11:07:05.765Z,4.17
2023-01-03T11:09:47.130Z,4.60
2023-01-03T11:12:27.969Z,4.50
2023-01-03T11:15:01.227Z,4.30
2023-01-03T11:17:31.088Z,4.60
2023-01-03T11:19:59.346Z,4.50
2023-01-03T11:22:38.100Z,4.57
2023-01-03T11:25:24.870Z,5.03
2023-01-03T11:28:15.582Z,4.73
2023-01-03T11:30:54.279Z,4.57
2023-01-03T11:33:52.358Z,4.30
2023-01-03T11:36:37.871Z,4.33
2023-01-03T11:39:26.553Z,4.93
2023-01-03T11:42:15.332Z,3.97
2023-01-03T11:45:18.159Z,4.70
2023-01-03T11:47:55.968Z,4.40
2023-01-03T11:50:29.603Z,4.20
2023-01-03T11:53:03.562Z,4.40
2023-01-03T11:55:53.376Z,4.60
2023-01-03T11:58:47.682Z,4.63
2023-01-03T12:01:26.561Z,4.37
2023-01-03T12:04:13.920Z,4.50
2023-01-03T12:06:49.326Z,4.53
2023-01-03T12:09:25.971Z,4.07
2023-01-03T12:12:34.650Z,4.13
2023-01-03T12:15:13.514Z,4.30
2023-01-03T12:17:48.429Z,4.00
2023-01-03T12:20:23.312Z,4.27
2023-01-03T12:22:56.157Z,3.97
2023-01-03T12:25:29.917Z,4.10
2023-01-03T12:28:03.947Z,3.70
2023-01-03T12:30:43.181Z,4.00
2023-01-03T12:33:25.697Z,4.27
2023-01-03T12:36:01.159Z,4.60
2023-01-03T12:38:35.549Z,3.60
2023-01-03T12:41:14.744Z,4.37
2023-01-03T12:43:49.879Z,4.80
2023-01-03T12:46:21.596Z,3.70
2023-01-03T12:48:59.942Z,3.80
2023-01-03T12:51:30.297Z,4.10
2023-01-03T12:54:15.623Z,3.90
2023-01-03T12:57:00.379Z,4.43
2023-01-03T12:59:54.647Z,3.23
2023-01-03T13:02:29.755Z,4.07
2023-01-03T13:05:08.304Z,4.10
2023-01-03T13:07:41.757Z,3.83
2023-01-03T13:10:17.214Z,3.70
2023-01-03T13:12:49.775Z,4.20
2023-01-03T13:15:33.311Z,3.63
2023-01-03T13:18:36.973Z,3.63
2023-01-03T13:21:38.662Z,3.50
2023-01-03T13:24:09.719Z,3.77
2023-01-03T13:26:38.039Z,3.90
2023-01-03T13:29:42.777Z,3.97
2023-01-03T13:32:19.450Z,4.27
2023-01-03T13:35:21.704Z,3.60
2023-01-03T13:37:51.387Z,2.97
2023-01-03T13:40:59.793Z,3.63
2023-01-03T13:43:21.356Z,3.60
2023-01-03T13:45:53.088Z,3.57
2023-01-03T13:48:31.979Z,3.70
2023-01-03T13:51:28.649Z,3.57
2023-01-03T13:54:01.449Z,3.93
2023-01-03T13:56:53.350Z,3.90
2023-01-03T13:59:32.256Z,3.73
2023-01-03T14:02:30.905Z,3.87
2023-01-03T14:05:30.886Z,4.10
2023-01-03T14:08:13.158Z,3.87
2023-01-03T14:11:05.285Z,4.40
2023-01-03T14:13:45.962Z,3.60
2023-01-03T14:16:22.814Z,4.10
2023-01-03T14:19:01.218Z,5.10
2023-01-03T14:21:43.787Z,4.30
2023-01-03T14:24:23.020Z,4.27
2023-01-03T14:26:51.566Z,4.23
2023-01-03T14:29:23.982Z,4.17
2023-01-03T14:31:56.049Z,4.50
2023-01-03T14:34:31.703Z,4.13
2023-01-03T14:37:05.294Z,4.60
2023-01-03T14:42:02.843Z,4.37
2023-01-03T14:44:33.501Z,4.47
2023-01-03T14:47:05.106Z,4.90
2023-01-03T14:49:46.000Z,4.97
2023-01-03T14:52:20.049Z,4.70
2023-01-03T14:54:50.870Z,4.90
2023-01-03T14:57:21.908Z,4.77
2023-01-03T14:59:52.438Z,4.60
2023-01-03T15:02:21.546Z,4.40
2023-01-03T15:04:55.845Z,4.50
2023-01-03T15:07:33.682Z,4.57
2023-01-03T15:10:16.435Z,5.47
2023-01-03T15:12:48.182Z,5.17
2023-01-03T15:15:24.645Z,4.47
2023-01-03T15:17:57.801Z,4.90
2023-01-03T15:20:35.168Z,5.00
2023-01-03T15:23:03.928Z,5.43
2023-01-03T15:25:36.019Z,5.17
2023-01-03T15:28:22.500Z,5.80
2023-01-03T15:30:53.129Z,5.90
2023-01-03T15:33:33.315Z,5.40
2023-01-03T15:36:05.944Z,5.10
2023-01-03T15:38:36.698Z,5.30
2023-01-03T15:41:15.435Z,4.60
2023-01-03T15:43:42.933Z,5.17
2023-01-03T15:46:17.559Z,4.73
2023-01-03T15:48:53.674Z,5.03
2023-01-03T15:51:21.950Z,5.00
2023-01-03T15:53:50.700Z,5.17
2023-01-03T15:56:20.552Z,5.23
2023-01-03T15:58:50.264Z,4.97
2023-01-03T16:01:22.472Z,4.60
2023-01-03T16:03:52.223Z,5.00
2023-01-03T16:06:20.628Z,5.10
2023-01-03T16:08:49.100Z,4.80
2023-01-03T16:11:22.987Z,4.40
2023-01-03T16:13:55.745Z,5.17
2023-01-03T16:16:29.146Z,4.57
2023-01-03T16:18:57.898Z,4.67
2023-01-03T16:21:26.718Z,4.53
2023-01-03T16:23:54.983Z,4.63
2023-01-03T16:26:24.669Z,4.43
2023-01-03T16:28:52.964Z,4.53
2023-01-03T16:31:27.340Z,4.83
2023-01-03T16:33:57.541Z,4.73
2023-01-03T16:36:32.127Z,4.67
2023-01-03T16:39:01.349Z,5.27
2023-01-03T16:41:29.545Z,5.10
2023-01-03T16:43:58.159Z,4.57
2023-01-03T16:46:27.404Z,4.30
2023-01-03T16:48:58.927Z,4.77
2023-01-03T16:51:29.713Z,4.07
2023-01-03T16:53:59.287Z,4.00
2023-01-03T16:56:28.297Z,4.07
2023-01-03T16:58:56.552Z,4.40
2023-01-03T17:01:27.926Z,4.47
2023-01-03T17:03:58.147Z,4.00
2023-01-03T17:06:37.465Z,4.47
2023-01-03T17:09:12.271Z,5.17
2023-01-03T17:11:41.057Z,4.87
2023-01-03T17:14:17.911Z,4.13
2023-01-03T17:16:46.681Z,4.17
2023-01-03T17:20:01.227Z,3.80
2023-01-03T17:22:13.894Z,3.90
2023-01-03T17:24:42.426Z,4.43
2023-01-03T17:27:17.406Z,3.80
2023-01-03T17:29:47.327Z,4.30
2023-01-03T17:32:18.621Z,4.47
2023-01-03T17:34:49.036Z,3.70
2023-01-03T17:37:20.575Z,3.87
2023-01-03T17:39:53.584Z,4.13
2023-01-03T17:42:22.093Z,3.40
2023-01-03T17:45:11.333Z,3.77
2023-01-03T17:47:58.625Z,3.63
2023-01-03T17:50:30.058Z,3.50
2023-01-03T17:52:59.337Z,4.10
2023-01-03T17:55:30.479Z,3.77
2023-01-03T17:58:01.443Z,4.50
2023-01-03T18:00:31.288Z,3.63
2023-01-03T18:03:02.738Z,4.00
2023-01-03T18:05:34.720Z,3.83
2023-01-03T18:08:03.876Z,3.40
2023-01-03T18:10:41.829Z,4.00
2023-01-03T18:13:22.546Z,4.53
2023-01-03T18:15:51.937Z,3.70
2023-01-03T18:18:22.293Z,3.53
2023-01-03T18:20:52.272Z,3.73
2023-01-03T18:23:30.935Z,3.30
2023-01-03T18:26:04.208Z,3.40
2023-01-03T18:28:35.413Z,3.63
2023-01-03T18:31:04.134Z,3.80
2023-01-03T18:33:32.636Z,3.53
2023-01-03T18:36:02.811Z,3.33
2023-01-03T18:38:34.173Z,3.40
2023-01-03T18:41:05.760Z,3.70
2023-01-03T18:43:35.161Z,3.17
2023-01-03T18:46:05.006Z,3.20
2023-01-03T18:48:33.381Z,3.03
2023-01-03T18:51:03.239Z,4.10
2023-01-03T18:53:34.718Z,11.10
2023-01-03T18:56:03.484Z,9.03
2023-01-03T18:58:35.397Z,8.60
2023-01-03T19:01:04.847Z,5.90
2023-01-03T19:03:35.046Z,3.13
2023-01-03T19:06:17.082Z,4.20
2023-01-03T19:08:45.614Z,3.90
2023-01-03T19:11:17.490Z,4.10
2023-01-03T19:13:53.089Z,4.20
2023-01-03T19:16:23.288Z,8.77
2023-01-03T19:18:53.678Z,7.13
2023-01-03T19:21:24.336Z,7.00
2023-01-03T19:24:00.618Z,4.37
2023-01-03T19:26:32.118Z,3.50
2023-01-03T19:29:02.628Z,3.87
2023-01-03T19:31:39.340Z,3.60
2023-01-03T19:34:22.101Z,4.00
2023-01-03T19:36:53.080Z,4.13
2023-01-03T19:39:25.826Z,4.00
2023-01-03T19:42:14.894Z,3.90
2023-01-03T19:44:43.584Z,3.53
2023-01-03T19:47:14.685Z,3.87
2023-01-03T19:49:43.197Z,4.40
2023-01-03T19:52:12.861Z,4.83
2023-01-03T19:54:41.069Z,4.10
2023-01-03T19:57:18.512Z,5.10
2023-01-03T19:59:51.900Z,7.00
2023-01-03T20:02:34.646Z,8.03
2023-01-03T20:05:03.473Z,6.70
2023-01-03T20:07:33.336Z,2.97
2023-01-03T20:10:01.773Z,6.00
2023-01-03T20:12:29.964Z,3.47
2023-01-03T20:15:06.237Z,4.10
2023-01-03T20:17:35.390Z,3.40
2023-01-03T20:20:03.484Z,4.43
2023-01-03T20:25:27.489Z,3.93
2023-01-03T20:27:56.987Z,3.40
2023-01-03T20:30:27.750Z,2.80
2023-01-03T20:32:56.069Z,2.87
2023-01-03T20:36:08.452Z,3.13
2023-01-03T20:38:24.641Z,3.07
2023-01-03T20:40:53.116Z,3.10
2023-01-03T20:43:21.383Z,2.80
2023-01-03T20:45:52.666Z,3.40
2023-01-03T20:48:25.426Z,2.90
2023-01-03T20:50:54.492Z,3.07
2023-01-03T20:53:26.160Z,2.97
2023-01-03T20:55:55.070Z,3.07
2023-01-03T20:58:26.149Z,2.77
2023-01-03T21:01:04.188Z,2.90
2023-01-03T21:03:34.652Z,3.00
2023-01-03T21:06:03.516Z,2.90
2023-01-03T21:08:50.944Z,2.90
2023-01-03T21:11:19.517Z,2.97
2023-01-03T21:13:47.718Z,2.70
2023-01-03T21:16:27.386Z,3.00
2023-01-03T21:18:55.806Z,2.93
2023-01-03T21:21:25.166Z,3.20
2023-01-03T21:23:55.492Z,3.47
2023-01-03T21:26:23.801Z,2.70
2023-01-03T21:28:52.030Z,2.83
2023-01-03T21:31:22.694Z,2.90
2023-01-03T21:33:53.315Z,3.30
2023-01-03T21:36:24.915Z,2.67
2023-01-03T21:38:54.503Z,3.20
2023-01-03T21:41:27.035Z,3.20
2023-01-03T21:43:56.931Z,2.83
2023-01-03T21:46:26.648Z,3.83
2023-01-03T21:48:55.704Z,3.37
2023-01-03T21:51:37.623Z,3.10
2023-01-03T21:54:09.477Z,3.47
2023-01-03T21:56:45.687Z,3.10
2023-01-03T21:59:15.016Z,2.70
2023-01-03T22:02:02.883Z,3.00
2023-01-03T22:04:32.186Z,3.30
2023-01-03T22:07:01.906Z,3.67
2023-01-03T22:09:51.287Z,3.97
2023-01-03T22:12:20.134Z,3.07
2023-01-03T22:14:48.569Z,3.40
2023-01-03T22:17:17.437Z,3.80
2023-01-03T22:19:45.621Z,3.13
2023-01-03T22:22:14.121Z,3.63
2023-01-03T22:24:43.762Z,3.77
2023-01-03T22:27:11.961Z,3.40
2023-01-03T22:29:40.317Z,3.37
2023-01-03T22:32:10.471Z,3.30
2023-01-03T22:34:39.728Z,3.60
2023-01-03T22:37:07.990Z,3.80
2023-01-03T22:39:36.454Z,3.67
2023-01-03T22:42:06.176Z,3.43
2023-01-03T22:44:34.415Z,3.60
2023-01-03T22:47:03.183Z,4.00
2023-01-03T22:49:31.792Z,3.70
2023-01-03T22:51:59.964Z,3.87
2023-01-03T22:54:28.854Z,3.87
2023-01-03T22:56:57.156Z,3.93
2023-01-03T22:59:26.794Z,4.00
2023-01-03T23:01:55.363Z,3.40
2023-01-03T23:04:24.337Z,3.73
2023-01-03T23:06:52.614Z,3.77
2023-01-03T23:09:22.077Z,4.07
2023-01-03T23:12:07.726Z,3.47
2023-01-03T23:14:37.876Z,3.70
2023-01-03T23:17:23.841Z,3.63
2023-01-03T23:19:52.658Z,3.80
2023-01-03T23:22:21.041Z,3.80
2023-01-03T23:24:49.224Z,3.47
2023-01-03T23:27:17.655Z,3.70
2023-01-03T23:29:47.346Z,3.67
2023-01-03T23:32:15.753Z,3.47
2023-01-03T23:34:44.263Z,3.37
2023-01-03T23:37:12.448Z,3.57
2023-01-03T23:39:41.039Z,3.50
2023-01-03T23:42:09.249Z,3.13
2023-01-03T23:44:37.587Z,3.30
2023-01-03T23:47:11.988Z,3.23
2023-01-03T23:49:41.452Z,3.53
2023-01-03T23:52:10.246Z,3.40
2023-01-03T23:54:38.470Z,3.43
2023-01-03T23:57:06.904Z,3.90
2023-01-03T23:59:35.355Z,3.60
